Time;durP1;ratioP1;P1;durP2;ratioP2;P2;SDS_P1;SDS_P2;PMS_P1;PMS_P2;Temp;Humidity;BMP_temperature;BMP_pressure;BME280_temperature;BME280_humidity;BME280_pressure;Samples;Min_cycle;Max_cycle;Signal;HPM_P1;HPM_P2
2021/04/22 00:01:03;;;;;;;7.78;7.03;;;;;;;10.22;56.86;100032.09;5095121;28;20315;-79
2021/04/22 00:03:29;;;;;;;10.38;7.95;;;;;;;9.51;57.13;99914.75;5095381;28;20367;-80
2021/04/22 00:05:54;;;;;;;8.90;8.00;;;;;;;10.01;57.00;100006.97;5094849;28;20104;-80
2021/04/22 00:08:20;;;;;;;9.73;8.15;;;;;;;9.75;56.70;99972.00;5094918;28;20036;-79
2021/04/22 00:10:48;;;;;;;8.77;7.63;;;;;;;10.16;57.11;100037.00;5077091;28;20020;-83
2021/04/22 00:13:16;;;;;;;9.15;7.78;;;;;;;10.23;57.02;100033.75;5094822;28;20024;-82
2021/04/22 00:15:42;;;;;;;8.85;7.90;;;;;;;9.67;56.84;99937.69;5094998;28;20016;-81
2021/04/22 00:18:09;;;;;;;9.85;7.72;;;;;;;10.23;56.80;100017.91;5094806;28;20023;-83
2021/04/22 00:20:35;;;;;;;13.23;8.85;;;;;;;10.27;56.54;100032.44;5094902;28;20081;-80
2021/04/22 00:23:02;;;;;;;12.02;8.63;;;;;;;9.56;56.96;99915.91;5094781;28;20448;-83
2021/04/22 00:25:28;;;;;;;9.60;7.88;;;;;;;10.25;56.54;100021.22;5094924;28;20346;-80
2021/04/22 00:27:53;;;;;;;10.15;8.32;;;;;;;10.05;56.75;99994.28;5076793;28;20020;-81
2021/04/22 00:30:19;;;;;;;11.00;8.55;;;;;;;10.26;56.79;100026.31;5094103;28;20028;-82
2021/04/22 00:32:45;;;;;;;11.05;7.95;;;;;;;10.29;56.36;100028.63;5094811;28;20024;-80
2021/04/22 00:35:11;;;;;;;8.75;7.85;;;;;;;10.19;56.43;100007.66;5094707;28;20054;-82
2021/04/22 00:37:38;;;;;;;8.98;8.07;;;;;;;10.23;56.43;100007.34;5076785;28;20469;-80
2021/04/22 00:40:19;;;;;;;7.47;6.78;;;;;;;10.24;56.15;100011.66;5076666;28;20062;-82
2021/04/22 00:42:45;;;;;;;7.45;6.75;;;;;;;9.65;56.11;99915.91;5076836;28;20085;-79
2021/04/22 00:45:12;;;;;;;7.60;6.57;;;;;;;10.00;56.11;99983.41;5076657;28;20321;-81
2021/04/22 00:47:38;;;;;;;7.72;6.88;;;;;;;9.79;56.23;99952.22;5094546;28;20024;-80
2021/04/22 00:50:05;;;;;;;9.05;6.95;;;;;;;10.26;56.61;100022.84;5094434;28;20082;-80
2021/04/22 00:52:31;;;;;;;8.27;7.10;;;;;;;10.25;56.51;100029.94;5094495;28;20024;-80
2021/04/22 00:54:56;;;;;;;9.93;8.13;;;;;;;9.66;56.50;99928.97;5094568;28;20095;-82
2021/04/22 00:57:21;;;;;;;9.65;8.48;;;;;;;9.49;56.26;99912.28;5094444;28;20426;-78
2021/04/22 00:59:47;;;;;;;9.68;8.15;;;;;;;10.08;56.45;100007.16;5094562;28;20012;-83
2021/04/22 01:02:14;;;;;;;10.05;8.88;;;;;;;10.18;56.44;100032.38;5094253;28;20020;-81
2021/04/22 01:04:39;;;;;;;8.77;7.80;;;;;;;10.02;56.53;100011.25;5076503;28;20035;-83
2021/04/22 01:07:05;;;;;;;7.95;7.15;;;;;;;10.16;56.43;100033.53;5094160;28;20024;-82
2021/04/22 01:09:30;;;;;;;9.57;7.75;;;;;;;9.80;56.27;99981.06;5076505;28;20027;-81
2021/04/22 01:11:57;;;;;;;8.82;7.70;;;;;;;10.10;56.63;100057.94;5076539;28;20063;-82
2021/04/22 01:14:22;;;;;;;8.52;7.63;;;;;;;10.07;56.24;100040.63;5076471;28;20016;-82
2021/04/22 01:16:49;;;;;;;8.35;7.45;;;;;;;10.00;56.30;100036.16;5094350;28;20430;-81
2021/04/22 01:19:15;;;;;;;11.45;9.00;;;;;;;10.05;56.28;100045.22;5094330;28;20502;-79
2021/04/22 01:21:41;;;;;;;11.10;8.10;;;;;;;9.39;56.62;99939.75;5094213;28;20477;-81
2021/04/22 01:24:08;;;;;;;9.20;7.82;;;;;;;9.51;56.07;99980.63;5094114;28;20024;-82
2021/04/22 01:26:34;;;;;;;9.88;8.45;;;;;;;10.01;56.20;100051.81;5094240;28;20081;-80
2021/04/22 01:28:59;;;;;;;7.63;6.90;;;;;;;9.95;56.33;100054.28;5076291;28;20102;-82
2021/04/22 01:31:27;;;;;;;7.05;6.07;;;;;;;9.24;56.11;99965.91;5076169;28;20028;-82
2021/04/22 01:34:06;;;;;;;6.85;6.10;;;;;;;9.82;56.26;100050.28;5094228;28;20016;-79
2021/04/22 01:36:41;;;;;;;7.63;6.05;;;;;;;9.13;56.09;99948.56;5094358;28;20024;-80
2021/04/22 01:39:10;;;;;;;7.53;5.50;;;;;;;9.74;56.79;100052.09;5076306;28;20024;-82
2021/04/22 01:41:36;;;;;;;6.03;5.43;;;;;;;9.31;56.20;99985.34;5094439;28;20043;-79
2021/04/22 01:44:02;;;;;;;6.78;6.03;;;;;;;9.67;56.12;100073.00;5097754;28;20059;-80
2021/04/22 01:46:28;;;;;;;6.20;5.60;;;;;;;9.60;56.15;100044.75;5079618;28;20319;-81
2021/04/22 01:48:54;;;;;;;5.88;5.25;;;;;;;9.65;56.17;100053.00;5079621;28;20031;-79
2021/04/22 01:51:20;;;;;;;6.55;5.95;;;;;;;9.43;55.99;100010.44;5097482;28;20028;-82
2021/04/22 01:53:46;;;;;;;6.95;6.10;;;;;;;9.65;56.25;100053.00;5079663;28;20491;-81
2021/04/22 01:56:12;;;;;;;7.40;5.90;;;;;;;9.67;56.17;100049.25;5097406;28;20085;-83
2021/04/22 01:58:37;;;;;;;6.45;5.85;;;;;;;9.66;55.95;100058.16;5079466;28;20020;-81
2021/04/22 02:01:03;;;;;;;15.48;9.85;;;;;;;8.81;56.32;99938.69;5079374;28;20020;-79
2021/04/22 02:03:32;;;;;;;7.60;6.65;;;;;;;9.56;56.22;100054.78;5079300;28;20015;-79
2021/04/22 02:05:58;;;;;;;6.57;5.68;;;;;;;8.99;56.42;99993.13;5097383;28;20027;-80
2021/04/22 02:08:24;;;;;;;8.70;5.80;;;;;;;9.33;56.80;100062.44;5097159;28;20030;-81
2021/04/22 02:10:49;;;;;;;7.82;5.88;;;;;;;9.39;56.51;100056.53;5079317;28;20104;-81
2021/04/22 02:13:17;;;;;;;5.88;5.38;;;;;;;8.79;56.45;99961.72;5097128;28;20031;-81
2021/04/22 02:15:43;;;;;;;6.13;5.53;;;;;;;9.35;56.55;100052.56;5097127;28;20107;-78
2021/04/22 02:18:09;;;;;;;7.25;5.25;;;;;;;9.36;56.64;100054.22;5078999;28;20012;-80
2021/04/22 02:20:35;;;;;;;6.40;5.65;;;;;;;9.30;56.60;100046.94;5097034;28;20023;-82
2021/04/22 02:23:01;;;;;;;6.28;5.68;;;;;;;9.43;56.60;100049.97;5096972;28;20323;-78
2021/04/22 02:25:27;;;;;;;8.95;6.20;;;;;;;9.43;56.26;100047.31;5078857;28;20020;-81
2021/04/22 02:27:53;;;;;;;6.95;6.03;;;;;;;9.46;56.25;100047.00;5096771;28;20391;-78
2021/04/22 02:30:25;;;;;;;8.43;6.72;;;;;;;9.03;56.56;100002.34;5096736;28;20469;-78
2021/04/22 02:32:51;;;;;;;;;;;;;;;9.11;57.22;100050.63;5097314;28;20153;-79
2021/04/22 02:35:19;;;;;;;7.55;6.38;;;;;;;9.04;56.92;100025.06;5078686;28;20362;-82
2021/04/22 02:37:45;;;;;;;7.03;6.32;;;;;;;9.12;56.70;100051.47;5078719;28;20008;-81
2021/04/22 02:40:14;;;;;;;7.80;6.57;;;;;;;8.96;57.00;100001.31;5096617;28;20024;-81
2021/04/22 02:42:40;;;;;;;7.68;6.90;;;;;;;9.14;57.01;100031.88;5096611;28;20028;-78
2021/04/22 02:45:09;;;;;;;7.32;6.43;;;;;;;8.89;56.89;99977.41;5078560;28;20020;-80
2021/04/22 02:47:35;;;;;;;9.63;6.10;;;;;;;9.39;56.61;100058.34;5096382;28;20012;-79
2021/04/22 02:50:00;;;;;;;8.73;7.07;;;;;;;9.30;56.72;100061.94;5078441;28;20035;-78
2021/04/22 02:52:26;;;;;;;8.93;6.68;;;;;;;9.24;56.75;100027.31;5095839;28;20085;-80
2021/04/22 02:54:51;;;;;;;11.25;7.28;;;;;;;8.89;56.44;99987.94;5078675;28;20055;-83
2021/04/22 02:57:16;;;;;;;8.82;7.50;;;;;;;9.21;56.47;100056.63;5096143;28;20028;-80
2021/04/22 02:59:42;;;;;;;9.35;8.18;;;;;;;8.97;56.76;100002.97;5096363;28;20031;-80
2021/04/22 03:02:07;;;;;;;9.68;8.65;;;;;;;9.23;56.75;100057.28;5096112;28;20093;-80
2021/04/22 03:04:33;;;;;;;11.07;9.18;;;;;;;9.27;56.79;100078.06;5096163;28;20381;-80
2021/04/22 03:06:58;;;;;;;9.57;8.23;;;;;;;9.10;56.65;100056.06;5096066;28;20028;-81
2021/04/22 03:09:23;;;;;;;8.35;7.45;;;;;;;9.22;56.81;100074.06;5096149;28;20091;-79
2021/04/22 03:11:49;;;;;;;10.10;8.02;;;;;;;9.12;56.67;100072.53;5078120;28;20024;-78
2021/04/22 03:14:14;;;;;;;11.40;7.85;;;;;;;8.90;56.47;100052.78;5077927;28;20452;-82
2021/04/22 03:16:40;;;;;;;12.00;8.63;;;;;;;8.82;56.91;100040.38;5095999;28;20020;-81
2021/04/22 03:19:05;;;;;;;9.88;8.18;;;;;;;9.07;56.98;100072.16;5095716;28;20103;-79
2021/04/22 03:21:30;;;;;;;10.93;8.80;;;;;;;8.80;56.74;100034.44;5095759;28;20035;-82
2021/04/22 03:23:56;;;;;;;9.93;8.68;;;;;;;9.09;56.29;100080.75;5095798;28;20238;-79
2021/04/22 03:26:21;;;;;;;12.35;8.82;;;;;;;9.10;56.82;100083.22;5095578;28;20396;-79
2021/04/22 03:28:47;;;;;;;9.60;8.38;;;;;;;8.70;56.20;100017.94;5077743;28;20122;-79
2021/04/22 03:31:13;;;;;;;15.77;9.77;;;;;;;8.54;56.65;99981.78;5061054;28;20046;-78
2021/04/22 03:33:38;;;;;;;9.25;8.23;;;;;;;9.04;56.68;100080.38;5077638;28;20024;-79
2021/04/22 03:36:05;;;;;;;9.75;8.32;;;;;;;8.81;56.05;100030.00;5095462;28;20338;-77
2021/04/22 03:38:30;;;;;;;11.52;8.73;;;;;;;8.89;55.92;100044.06;5095776;28;20081;-78
2021/04/22 03:40:55;;;;;;;8.68;7.78;;;;;;;9.13;56.38;100087.34;5095578;28;20028;-81
2021/04/22 03:43:21;;;;;;;14.13;11.45;;;;;;;9.12;56.33;100090.97;5095397;28;20099;-78
2021/04/22 03:45:46;;;;;;;10.90;8.88;;;;;;;8.01;56.49;99918.69;5095570;28;20032;-79
2021/04/22 03:48:12;;;;;;;11.63;8.70;;;;;;;9.12;56.14;100093.59;5095137;28;20077;-79
2021/04/22 03:50:37;;;;;;;12.43;9.55;;;;;;;9.11;56.48;100097.22;5077269;28;20115;-76
2021/04/22 03:53:02;;;;;;;11.07;9.80;;;;;;;9.02;56.19;100079.72;5095193;28;20081;-79
2021/04/22 03:55:28;;;;;;;10.23;9.20;;;;;;;7.99;56.19;99912.78;5095074;28;20020;-79
2021/04/22 03:57:53;;;;;;;10.57;9.35;;;;;;;9.26;56.16;100095.66;5077236;28;20014;-79
2021/04/22 04:00:22;;;;;;;10.38;9.05;;;;;;;9.13;56.21;100074.19;5095129;28;20020;-78
2021/04/22 04:02:48;;;;;;;10.90;9.15;;;;;;;8.53;56.09;99966.97;5094981;28;20434;-77
2021/04/22 04:05:14;;;;;;;11.55;9.02;;;;;;;9.19;55.97;100086.72;5076357;28;20020;-78
2021/04/22 04:07:40;;;;;;;10.63;9.43;;;;;;;9.20;56.42;100093.66;5077143;28;20038;-79
2021/04/22 04:10:07;;;;;;;13.20;10.75;;;;;;;9.28;56.27;100106.88;5095009;28;20114;-79
2021/04/22 04:12:33;;;;;;;13.55;11.93;;;;;;;8.99;56.14;100065.03;5095099;28;20030;-78
2021/04/22 04:14:58;;;;;;;13.35;11.43;;;;;;;8.87;55.93;100038.13;5076950;28;20028;-77
2021/04/22 04:17:24;;;;;;;15.98;10.85;;;;;;;9.36;55.86;100109.56;5094742;28;20095;-75
2021/04/22 04:19:49;;;;;;;14.88;10.85;;;;;;;9.13;56.22;100075.00;5077065;28;20028;-78
2021/04/22 04:22:15;;;;;;;18.25;11.98;;;;;;;8.85;56.10;100026.09;5076636;28;20062;-77
2021/04/22 04:24:40;;;;;;;13.13;10.65;;;;;;;8.96;56.19;100052.19;5094824;28;20023;-76
2021/04/22 04:27:06;;;;;;;12.98;10.07;;;;;;;9.00;55.91;100045.63;5094610;28;20021;-76
2021/04/22 04:29:31;;;;;;;17.60;11.98;;;;;;;9.48;56.01;100139.94;5094681;28;20327;-77
2021/04/22 04:31:57;;;;;;;21.73;14.30;;;;;;;8.65;56.38;99977.25;5076923;28;20070;-74
2021/04/22 04:34:22;;;;;;;22.60;15.00;;;;;;;9.13;56.26;100047.84;5094565;28;20354;-74
2021/04/22 04:36:48;;;;;;;24.05;15.23;;;;;;;9.49;55.85;100109.13;5094586;28;20490;-78
2021/04/22 04:39:14;;;;;;;23.05;15.40;;;;;;;9.14;56.29;100057.41;5094489;28;20023;-79
2021/04/22 04:41:40;;;;;;;22.23;16.30;;;;;;;9.68;55.99;100124.75;5094760;28;20031;-76
2021/04/22 04:44:06;;;;;;;21.00;15.63;;;;;;;9.71;55.64;100128.88;5076867;28;20141;-76
2021/04/22 04:46:31;;;;;;;31.30;18.20;;;;;;;9.56;55.83;100115.44;5094708;28;20099;-75
2021/04/22 04:48:57;;;;;;;22.85;17.48;;;;;;;9.57;55.87;100146.91;5094538;28;20028;-82
2021/04/22 04:51:23;;;;;;;23.85;16.73;;;;;;;9.67;56.01;100146.00;5076935;28;20031;-83
2021/04/22 04:53:48;;;;;;;20.40;14.82;;;;;;;9.74;56.10;100147.00;5094393;28;20039;-83
2021/04/22 04:56:17;;;;;;;15.88;11.85;;;;;;;9.45;55.72;100086.72;5094663;28;20028;-83
2021/04/22 04:58:43;;;;;;;13.23;10.38;;;;;;;9.83;55.75;100146.88;5094503;28;20024;-76
2021/04/22 05:01:09;;;;;;;11.27;9.30;;;;;;;9.80;55.90;100141.09;5055533;22;20406;-77
2021/04/22 05:03:34;;;;;;;12.45;8.38;;;;;;;9.77;56.01;100144.88;5054239;28;20025;-76
2021/04/22 05:05:59;;;;;;;10.30;7.80;;;;;;;9.86;56.03;100153.66;5044618;28;20024;-85
2021/04/22 05:08:25;;;;;;;11.57;8.00;;;;;;;9.32;55.86;100060.78;5043747;28;20020;-76
2021/04/22 05:10:50;;;;;;;13.15;9.25;;;;;;;9.56;56.02;100076.72;5041322;28;20103;-77
2021/04/22 05:13:16;;;;;;;11.75;10.55;;;;;;;9.90;55.97;100112.78;5034034;28;20108;-81
2021/04/22 05:15:41;;;;;;;10.80;8.38;;;;;;;9.77;55.84;100086.88;5034819;28;20028;-84
2021/04/22 05:18:07;;;;;;;10.68;9.35;;;;;;;8.94;55.75;99946.19;5044357;28;20334;-84
2021/04/22 05:20:32;;;;;;;13.68;10.70;;;;;;;10.25;55.33;100137.31;5052678;28;20151;-79
2021/04/22 05:22:57;;;;;;;15.88;11.48;;;;;;;10.22;55.38;100124.47;5039696;28;20041;-82
2021/04/22 05:25:23;;;;;;;14.45;11.05;;;;;;;10.07;55.31;100095.19;5047686;28;20017;-81
2021/04/22 05:27:48;;;;;;;13.65;11.40;;;;;;;9.71;55.45;100032.13;5041076;28;20463;-82
2021/04/22 05:30:14;;;;;;;14.25;11.55;;;;;;;9.85;55.57;100042.06;5036462;28;20431;-84
2021/04/22 05:32:40;;;;;;;16.00;12.27;;;;;;;10.55;55.44;100144.66;5037671;28;20018;-83
2021/04/22 05:35:06;;;;;;;15.27;12.35;;;;;;;10.61;54.97;100143.19;5037714;28;20397;-79
2021/04/22 05:37:31;;;;;;;18.40;13.38;;;;;;;10.59;55.27;100113.50;5048041;28;20033;-81
2021/04/22 05:39:57;;;;;;;15.02;12.25;;;;;;;10.74;55.49;100133.78;5051887;28;20036;-84
2021/04/22 05:42:22;;;;;;;19.50;12.75;;;;;;;10.47;55.11;100082.13;5047963;28;20112;-83
2021/04/22 05:44:48;;;;;;;17.80;13.63;;;;;;;10.42;55.24;100068.59;5040672;28;20120;-79
2021/04/22 05:47:13;;;;;;;18.40;13.63;;;;;;;10.44;55.05;100042.84;5051445;28;20116;-79
2021/04/22 05:49:39;;;;;;;15.55;13.65;;;;;;;9.93;55.36;99946.31;5045916;28;20116;-77
2021/04/22 05:52:05;;;;;;;19.60;14.20;;;;;;;10.95;55.02;100100.75;5037754;28;20451;-82
2021/04/22 05:54:30;;;;;;;19.38;14.48;;;;;;;11.12;55.00;100116.44;5037346;28;20029;-82
2021/04/22 05:56:55;;;;;;;16.63;14.27;;;;;;;10.96;55.48;100083.91;5037284;28;20034;-80
2021/04/22 05:59:21;;;;;;;21.42;17.48;;;;;;;11.43;55.04;100145.66;5037226;28;20080;-81
2021/04/22 06:01:46;;;;;;;21.45;16.55;;;;;;;11.42;55.32;100138.72;5038920;28;20344;-77
2021/04/22 06:04:12;;;;;;;22.65;14.93;;;;;;;11.61;55.12;100153.38;5051188;28;20055;-81
2021/04/22 06:06:37;;;;;;;19.60;15.20;;;;;;;11.21;54.80;100082.91;5045033;28;20103;-80
2021/04/22 06:09:03;;;;;;;19.27;14.52;;;;;;;11.38;55.63;100097.75;5035890;28;20363;-78
2021/04/22 06:11:29;;;;;;;18.88;13.40;;;;;;;11.81;55.09;100151.19;5049467;28;20029;-79
2021/04/22 06:13:57;;;;;;;10.52;9.35;;;;;;;10.94;55.33;100004.00;5046040;28;20157;-79
2021/04/22 06:16:23;;;;;;;11.18;9.90;;;;;;;11.98;54.59;100165.19;5051564;28;20100;-76
2021/04/22 06:18:48;;;;;;;13.00;10.25;;;;;;;11.67;54.61;100104.25;5036550;28;20025;-82
2021/04/22 06:21:14;;;;;;;9.50;8.55;;;;;;;12.12;53.58;100155.72;5037449;28;20025;-78
2021/04/22 06:23:40;;;;;;;11.63;9.75;;;;;;;12.21;54.02;100165.25;5043321;28;20032;-79
2021/04/22 06:26:05;;;;;;;10.50;9.35;;;;;;;12.30;53.67;100161.56;5045838;28;20155;-76
2021/04/22 06:28:31;;;;;;;10.60;9.55;;;;;;;12.39;53.63;100157.88;5041010;28;20021;-75
2021/04/22 06:30:56;;;;;;;11.48;9.25;;;;;;;12.44;53.76;100158.19;5039168;28;20025;-79
2021/04/22 06:33:22;;;;;;;13.88;10.02;;;;;;;11.72;53.14;100057.78;5036710;28;20017;-82
2021/04/22 06:35:47;;;;;;;12.65;10.50;;;;;;;12.53;53.64;100166.91;5056723;28;20029;-81
2021/04/22 06:38:13;;;;;;;14.40;10.98;;;;;;;12.59;53.45;100161.72;5045314;28;20032;-79
2021/04/22 06:40:38;;;;;;;12.35;8.90;;;;;;;12.67;53.18;100172.28;5043396;28;20060;-80
2021/04/22 06:43:04;;;;;;;11.80;10.18;;;;;;;12.75;53.46;100170.59;5054640;28;20040;-81
2021/04/22 06:45:30;;;;;;;12.25;10.07;;;;;;;12.84;53.40;100188.06;5038008;28;20017;-79
2021/04/22 06:47:55;;;;;;;10.82;9.20;;;;;;;12.41;53.05;100095.78;5052896;28;20108;-81
2021/04/22 06:50:24;;;;;;;11.35;10.25;;;;;;;13.01;53.05;100166.56;5045203;28;20049;-84
2021/04/22 06:52:50;;;;;;;12.55;9.35;;;;;;;12.51;52.97;100073.53;5041478;28;20033;-80
2021/04/22 06:55:19;;;;;;;12.40;10.60;;;;;;;13.19;52.51;100166.28;5034647;28;20041;-82
2021/04/22 06:57:45;;;;;;;12.93;11.35;;;;;;;12.35;52.49;100032.94;5048258;28;20048;-84
2021/04/22 07:00:14;;;;;;;11.73;10.52;;;;;;;13.00;52.86;100113.72;5051343;28;20060;-73
2021/04/22 07:02:39;;;;;;;13.52;10.73;;;;;;;13.43;52.55;100173.22;5049107;28;20025;-76
2021/04/22 07:05:07;;;;;;;11.95;10.65;;;;;;;13.17;52.31;100125.03;5039605;28;20091;-77
2021/04/22 07:07:32;;;;;;;12.15;10.38;;;;;;;13.46;51.81;100151.63;5048270;28;20100;-78
2021/04/22 07:09:59;;;;;;;12.20;10.35;;;;;;;13.66;51.79;100166.00;5036791;28;20116;-82
2021/04/22 07:12:25;;;;;;;12.07;10.30;;;;;;;13.75;51.89;100171.22;5044683;28;20124;-83
2021/04/22 07:14:50;;;;;;;13.15;9.35;;;;;;;13.82;51.74;100185.41;5055965;28;20021;-80
2021/04/22 07:17:16;;;;;;;13.65;10.77;;;;;;;13.86;51.48;100166.25;5055921;28;20449;-78
2021/04/22 07:19:41;;;;;;;19.10;10.02;;;;;;;13.98;51.64;100171.94;5055165;28;20362;-79
2021/04/22 07:22:07;;;;;;;12.23;10.65;;;;;;;13.66;50.89;100112.09;5054887;28;20422;-82
2021/04/22 07:24:32;;;;;;;15.45;11.57;;;;;;;14.16;50.70;100169.75;5049666;28;20017;-73
2021/04/22 07:26:58;;;;;;;13.13;9.73;;;;;;;14.15;50.55;100154.00;5035289;28;20026;-79
2021/04/22 07:29:23;;;;;;;13.20;11.43;;;;;;;14.30;50.21;100165.41;5039616;28;20036;-79
2021/04/22 07:31:49;;;;;;;16.00;11.73;;;;;;;13.45;50.34;100006.72;5035681;28;20096;-83
2021/04/22 07:34:15;;;;;;;16.30;10.90;;;;;;;14.48;50.00;100165.84;5042294;28;20050;-83
2021/04/22 07:36:40;;;;;;;18.90;11.90;;;;;;;14.57;50.02;100180.66;5044906;28;20025;-81
2021/04/22 07:39:06;;;;;;;15.43;10.88;;;;;;;14.58;49.90;100141.63;5041336;28;20513;-82
2021/04/22 07:41:31;;;;;;;13.50;10.60;;;;;;;14.73;49.30;100142.38;5030407;28;20032;-80
2021/04/22 07:43:57;;;;;;;17.27;11.70;;;;;;;14.72;49.28;100140.72;5034932;28;20134;-77
2021/04/22 07:46:23;;;;;;;12.82;10.05;;;;;;;14.44;49.17;100095.50;5034881;28;20017;-79
2021/04/22 07:48:48;;;;;;;20.38;17.75;;;;;;;14.93;49.06;100154.03;5038400;28;20083;-78
2021/04/22 07:51:13;;;;;;;20.10;16.95;;;;;;;14.66;49.26;100091.00;5036462;28;20029;-77
2021/04/22 07:53:39;;;;;;;15.93;13.30;;;;;;;15.03;49.17;100139.59;5039837;28;20025;-79
2021/04/22 07:56:04;;;;;;;12.10;8.65;;;;;;;15.25;49.32;100159.81;5045077;28;20025;-79
2021/04/22 07:58:31;;;;;;;12.35;8.57;;;;;;;14.86;49.17;100097.34;5056175;28;20021;-77
2021/04/22 08:00:58;;;;;;;8.40;7.50;;;;;;;15.33;48.80;100146.38;5046376;28;20033;-75
2021/04/22 08:03:23;;;;;;;6.88;6.18;;;;;;;15.38;48.65;100151.13;5041756;28;20364;-78
2021/04/22 08:05:54;;;;;;;8.93;7.22;;;;;;;15.56;48.77;100149.59;5038594;28;20025;-78
2021/04/22 08:08:20;;;;;;;9.35;8.38;;;;;;;15.77;48.12;100183.38;5032930;28;20040;-78
2021/04/22 08:10:47;;;;;;;8.88;6.55;;;;;;;15.94;48.28;100156.41;5039817;28;20060;-75
2021/04/22 08:13:14;;;;;;;6.43;5.82;;;;;;;15.96;47.95;100136.56;5050699;28;20119;-76
2021/04/22 08:15:41;;;;;;;5.93;4.70;;;;;;;15.83;47.04;100093.88;5047689;28;20044;-81
2021/04/22 08:18:07;;;;;;;4.68;4.05;;;;;;;15.95;46.06;100094.97;5043133;28;20052;-75
2021/04/22 08:20:33;;;;;;;4.47;4.07;;;;;;;15.88;45.32;100078.13;5036660;28;20064;-83
2021/04/22 08:23:01;;;;;;;4.68;4.28;;;;;;;16.26;45.49;100114.94;5062779;28;20075;-82
2021/04/22 08:25:30;;;;;;;4.47;4.07;;;;;;;16.52;44.75;100134.50;5040480;28;20037;-77
2021/04/22 08:27:56;;;;;;;3.92;3.63;;;;;;;16.70;44.50;100157.94;5048044;28;20030;-79
2021/04/22 08:30:26;;;;;;;4.35;3.90;;;;;;;16.62;43.85;100120.78;5044376;28;20029;-75
2021/04/22 08:32:51;;;;;;;4.40;4.00;;;;;;;16.84;44.14;100150.78;5048245;28;20036;-76
2021/04/22 08:35:17;;;;;;;4.70;4.30;;;;;;;17.01;44.32;100151.19;5050169;28;20024;-77
2021/04/22 08:37:43;;;;;;;4.40;3.88;;;;;;;17.06;44.22;100133.53;5045307;28;20100;-77
2021/04/22 08:40:13;;;;;;;5.47;4.25;;;;;;;17.18;43.65;100116.94;5043614;28;20060;-77
2021/04/22 08:42:40;;;;;;;4.82;4.43;;;;;;;17.38;43.60;100120.41;5034480;28;20049;-74
2021/04/22 08:45:07;;;;;;;4.43;3.70;;;;;;;17.75;43.30;100149.09;5040749;28;20092;-75
2021/04/22 08:47:33;;;;;;;4.30;3.90;;;;;;;17.65;43.41;100116.66;5054331;28;20033;-77
2021/04/22 08:49:59;;;;;;;4.38;3.97;;;;;;;17.71;43.05;100101.66;5049666;28;20039;-75
2021/04/22 08:52:24;;;;;;;4.43;4.13;;;;;;;17.64;43.16;100058.94;5055588;28;20069;-76
2021/04/22 08:54:51;;;;;;;4.45;3.78;;;;;;;18.18;43.09;100105.81;5044033;28;20037;-77
2021/04/22 08:57:17;;;;;;;4.28;3.88;;;;;;;18.57;42.68;100139.50;5050540;28;20033;-76
2021/04/22 08:59:42;;;;;;;4.45;4.05;;;;;;;18.75;42.30;100136.16;5050765;28;20438;-75
2021/04/22 09:02:08;;;;;;;4.22;3.90;;;;;;;18.87;42.02;100134.41;5040956;28;20184;-78
2021/04/22 09:04:35;;;;;;;5.22;4.05;;;;;;;19.00;41.90;100136.16;5018307;28;20340;-76
2021/04/22 09:07:00;;;;;;;4.55;4.10;;;;;;;18.85;41.54;100074.94;5037501;28;20060;-82
2021/04/22 09:09:26;;;;;;;4.90;4.47;;;;;;;19.22;40.23;100128.56;5035926;28;20033;-76
2021/04/22 09:11:51;;;;;;;4.32;3.97;;;;;;;19.19;39.94;100116.44;5038195;28;20405;-81
2021/04/22 09:14:22;;;;;;;4.80;4.00;;;;;;;19.43;39.37;100124.69;5036491;28;20025;-77
2021/04/22 09:16:49;;;;;;;9.93;4.82;;;;;;;19.56;39.46;100108.50;5038328;28;20026;-78
2021/04/22 09:19:23;;;;;;;4.15;3.50;;;;;;;19.33;39.06;100061.75;5030291;28;20113;-76
2021/04/22 09:21:57;;;;;;;6.90;6.10;;;;;;;19.89;39.03;100113.47;5042179;28;20035;-77
2021/04/22 09:24:26;;;;;;;4.35;3.80;;;;;;;19.48;38.72;100010.50;5019306;28;20033;-77
2021/04/22 09:26:59;;;;;;;5.80;4.28;;;;;;;20.42;38.46;100105.59;5039489;28;20030;-78
2021/04/22 09:29:44;;;;;;;4.18;3.78;;;;;;;20.57;37.57;100094.44;5037665;28;20025;-79
2021/04/22 09:32:22;;;;;;;3.58;3.20;;;;;;;20.70;37.09;100088.88;5029551;28;20039;-77
2021/04/22 09:34:49;;;;;;;4.22;3.20;;;;;;;20.77;36.98;100088.75;5039613;28;20036;-77
2021/04/22 09:37:16;;;;;;;3.08;2.80;;;;;;;20.84;35.81;100074.22;5040038;28;20104;-76
2021/04/22 09:39:42;;;;;;;2.83;2.53;;;;;;;21.04;35.63;100081.94;5040667;28;20036;-76
2021/04/22 09:42:13;;;;;;;5.28;4.78;;;;;;;21.29;35.64;100064.78;5043336;28;20083;-79
2021/04/22 09:44:42;;;;;;;4.85;3.10;;;;;;;21.40;34.98;100064.78;5036597;28;20036;-78
2021/04/22 09:47:11;;;;;;;3.53;3.10;;;;;;;21.41;34.50;100070.97;5042863;28;20040;-75
2021/04/22 09:49:51;;;;;;;5.30;3.50;;;;;;;21.63;34.35;100063.13;5027590;28;20127;-75
2021/04/22 09:52:18;;;;;;;3.45;2.60;;;;;;;21.76;34.42;100057.47;5046679;28;20032;-74
2021/04/22 09:54:52;;;;;;;4.40;4.00;;;;;;;21.96;33.46;100057.88;5043867;28;20021;-78
2021/04/22 09:57:26;;;;;;;3.45;2.40;;;;;;;22.00;33.06;100056.34;5046137;28;20021;-75
2021/04/22 09:59:52;;;;;;;3.60;3.15;;;;;;;22.13;32.52;100049.88;5039117;28;20443;-77
2021/04/22 10:02:18;;;;;;;2.78;2.58;;;;;;;22.17;31.81;100049.16;5044060;28;20068;-75
2021/04/22 10:04:46;;;;;;;3.20;2.90;;;;;;;22.16;31.53;99993.72;5038836;28;20053;-77
2021/04/22 10:07:25;;;;;;;3.95;2.90;;;;;;;22.64;30.84;100035.44;5045939;28;20043;-75
2021/04/22 10:09:54;;;;;;;2.50;2.30;;;;;;;22.70;29.89;100030.94;5050237;28;20068;-76
2021/04/22 10:12:27;;;;;;;2.72;2.50;;;;;;;22.72;29.42;100032.34;5036944;28;20029;-77
2021/04/22 10:14:56;;;;;;;4.10;2.30;;;;;;;22.94;28.65;100045.91;5045027;28;20090;-74
2021/04/22 10:17:23;;;;;;;2.47;2.08;;;;;;;23.00;28.56;100033.31;5047966;28;20115;-76
2021/04/22 10:20:15;;;;;;;3.00;2.17;;;;;;;23.36;28.26;100023.88;5054667;28;20029;-75
2021/04/22 10:22:48;;;;;;;4.05;3.65;;;;;;;23.44;28.19;100018.03;5030520;28;20044;-75
2021/04/22 10:25:23;;;;;;;4.88;3.20;;;;;;;23.24;27.27;99975.50;5045607;28;20169;-77
2021/04/22 10:27:49;;;;;;;2.30;2.10;;;;;;;23.70;26.97;100011.09;5046498;28;20106;-74
2021/04/22 10:30:23;;;;;;;2.35;2.15;;;;;;;23.38;26.58;99955.19;5041728;28;20036;-75
2021/04/22 10:32:49;;;;;;;2.55;1.95;;;;;;;23.75;26.41;100005.75;5043600;28;20028;-74
2021/04/22 10:35:21;;;;;;;4.57;2.53;;;;;;;23.72;25.79;100006.28;5033753;28;20022;-74
2021/04/22 10:37:50;;;;;;;2.92;2.67;;;;;;;23.69;25.08;99996.81;5035366;28;20354;-74
2021/04/22 10:40:18;;;;;;;8.60;6.18;;;;;;;23.90;25.63;99997.03;5049465;28;20238;-79
2021/04/22 10:42:43;;;;;;;7.55;6.22;;;;;;;23.42;25.83;99866.56;5037606;28;20033;-78
2021/04/22 10:45:13;;;;;;;8.43;6.20;;;;;;;24.51;25.30;99989.50;5036511;28;20040;-79
2021/04/22 10:47:39;;;;;;;9.15;6.18;;;;;;;24.62;25.19;99978.56;5038657;28;20332;-81
2021/04/22 10:50:18;;;;;;;3.35;3.05;;;;;;;24.31;22.51;99955.91;5047096;28;20025;-77
2021/04/22 10:52:47;;;;;;;3.00;2.38;;;;;;;24.44;22.99;99933.06;5029425;28;20032;-78
2021/04/22 10:55:32;;;;;;;5.75;3.38;;;;;;;24.75;21.74;100001.59;5033655;28;20024;-76
2021/04/22 10:58:13;;;;;;;2.45;2.13;;;;;;;24.81;22.71;99978.13;5035440;28;20018;-76
2021/04/22 11:00:47;;;;;;;2.50;2.30;;;;;;;25.03;22.56;99970.72;5044659;28;20033;-77
2021/04/22 11:03:23;;;;;;;3.10;2.30;;;;;;;25.03;22.39;99933.72;5039599;28;20419;-75
2021/04/22 11:06:04;;;;;;;4.05;2.67;;;;;;;25.07;22.33;99960.22;5038231;28;20076;-76
2021/04/22 11:08:54;;;;;;;3.60;2.97;;;;;;;24.48;22.41;99958.47;5038455;28;20098;-78
2021/04/22 11:11:31;;;;;;;4.40;3.30;;;;;;;23.99;22.93;99950.47;5025854;28;20040;-77
2021/04/22 11:14:14;;;;;;;3.55;2.65;;;;;;;23.95;23.43;99951.25;5039687;28;20036;-75
2021/04/22 11:16:46;;;;;;;3.50;3.00;;;;;;;24.10;23.13;99959.47;5054702;28;20036;-77
2021/04/22 11:19:17;;;;;;;2.08;1.98;;;;;;;24.40;22.49;99954.34;5048098;28;20051;-75
2021/04/22 11:22:19;;;;;;;2.80;2.60;;;;;;;24.48;22.94;99941.44;5043272;28;20423;-76
2021/04/22 11:24:58;;;;;;;3.72;2.30;;;;;;;24.50;22.64;99956.31;5040294;28;20045;-76